Grande Europa — ICGE — position and weather

sailwx.info

Track history (hours):
 
Tides and Currents Weather Stations Pressure Air Temp Water Temp Dewpoint Dewpoint Depression Visibility Wind Speed Wind Dir Waves Ship Positions

Grande Europa

Last reported at 2015-Jul-30 21:33 UTC. Time now 2015-Aug-01 11:48 UTC.
Position N 39°19' W 009°52'.

Length 183 m; draft 8.2 m.

Type: Ship (hazmat cat D). MMSI: 247206000.

Date/timePositionNaut miles runAvg speedWind from/ knotsBaromVisibWave heightAir tempDewpointWater temp
2015-Jul-30 21:33N 39°19' W 009°52'1615.7
2015-Jul-30 20:33N 39°04' W 009°51'1616.0
2015-Jul-30 19:33N 38°48' W 009°51'1514.7
2015-Jul-30 18:33N 38°34' W 009°45'1615.9
2015-Jul-30 17:33N 38°27' W 009°27'1615.6
2015-Jul-30 16:33N 38°21' W 009°09'1313.2
2015-Jul-30 15:33N 38°30' W 008°56'3 2.8
2015-Jul-30 14:33N 38°31' W 008°53'0 0.0
2015-Jul-30 13:30N 38°31' W 008°53'0 0.0
2015-Jul-30 12:33N 38°31' W 008°53'0 0.0
2015-Jul-30 11:33N 38°31' W 008°53'0 0.0
2015-Jul-30 10:33N 38°31' W 008°53'0 0.0
2015-Jul-30 09:33N 38°31' W 008°53'0 0.0
2015-Jul-30 08:33N 38°31' W 008°53'0 0.0
2015-Jul-30 07:33N 38°31' W 008°53'0 0.0
2015-Jul-30 06:33N 38°31' W 008°53'1 1.4
2015-Jul-30 05:33N 38°31' W 008°54'1111.3
2015-Jul-30 04:34N 38°21' W 009°01'1817.8
2015-Jul-30 03:33N 38°03' W 009°05'1818.1
2015-Jul-30 02:34N 37°46' W 009°10'1817.6
2015-Jul-30 01:33N 37°28' W 009°14'1817.4
2015-Jul-30 00:33N 37°11' W 009°19'1717.1
2015-Jul-29 23:32N 36°54' W 009°19'1616.4
2015-Jul-29 22:33N 36°44' W 009°04'1717.2
2015-Jul-29 21:33N 36°38' W 008°43'2116.8
2015-Jul-29 20:20N 36°31' W 008°19'1716.2
2015-Jul-29 19:16N 36°26' W 007°59'4717.2
2015-Jul-29 16:33N 36°12' W 007°03'21316.4
2015-Jul-29 03:32N 36°21' W 002°40'1717.6
2015-Jul-29 02:33N 36°25' W 002°18'1917.5
2015-Jul-29 01:26N 36°35' W 001°58'1517.0
2015-Jul-29 00:33N 36°45' W 001°44'1716.8
2015-Jul-28 23:33N 36°56' W 001°28'1717.2
2015-Jul-28 22:33N 37°07' W 001°12'1717.3
2015-Jul-28 21:33N 37°19' W 000°56'1717.2
2015-Jul-28 20:33N 37°30' W 000°39'1717.1
2015-Jul-28 19:33N 37°44' W 000°26'1717.1
2015-Jul-28 18:33N 37°58' W 000°14'1716.7
2015-Jul-28 17:33N 38°12' W 000°02'1717.3
2015-Jul-28 16:33N 38°26' E 000°09'6115.2
2015-Jul-28 12:33N 39°24' W 000°15'3 3.4
2015-Jul-28 11:33N 39°26' W 000°18'0 0.0
2015-Jul-28 10:33N 39°26' W 000°18'0 0.0
2015-Jul-28 09:33N 39°26' W 000°18'0 0.0
2015-Jul-28 08:33N 39°26' W 000°18'0 0.0
2015-Jul-28 07:33N 39°26' W 000°18'0 0.0
2015-Jul-28 06:33N 39°26' W 000°18'0 0.0
2015-Jul-28 05:33N 39°26' W 000°18'5 4.6
2015-Jul-28 04:33N 39°27' W 000°12'3616.8
2015-Jul-28 02:25N 39°41' E 000°30'1516.9
2015-Jul-28 01:32N 39°47' E 000°48'1716.6
2015-Jul-28 00:30N 39°56' E 001°07'1617.0
2015-Jul-27 23:33N 40°05' E 001°24'1716.5
2015-Jul-27 22:33N 40°15' E 001°42'1716.7
2015-Jul-27 21:33N 40°24' E 002°00'1616.5
2015-Jul-27 20:33N 40°33' E 002°18'1716.3
2015-Jul-27 19:32N 40°42' E 002°36'1818.1
2015-Jul-27 18:33N 40°52' E 002°56'13118.7
2015-Jul-27 11:33N 42°04' E 005°22'5317.8
2015-Jul-27 08:34N 42°34' E 006°21'1817.7
2015-Jul-27 07:33N 42°44' E 006°41'1817.7
2015-Jul-27 06:32N 42°56' E 006°60'1717.8
2015-Jul-27 05:33N 43°07' E 007°18'7017.2
2015-Jul-27 01:27N 43°59' E 008°24'1618.1
2015-Jul-27 00:33N 44°14' E 008°31'4 3.9
2015-Jul-26 23:26N 44°19' E 008°30'0 0.0
2015-Jul-26 22:26N 44°19' E 008°30'0 0.0
2015-Jul-26 21:29N 44°19' E 008°30'0 0.0
2015-Jul-26 19:26N 44°19' E 008°30'0 0.0
2015-Jul-26 18:32N 44°19' E 008°30'1 1.3
2015-Jul-26 17:33N 44°18' E 008°32'1211.5
2015-Jul-26 16:33N 44°08' E 008°40'1717.5
2015-Jul-26 15:33N 43°53' E 008°52'27216.6
2015-Jul-25 23:07N 40°42' E 013°14'916.9
2015-Jul-25 22:34N 40°39' E 013°26'1716.7
2015-Jul-25 21:34N 40°35' E 013°47'1817.6
2015-Jul-25 20:33N 40°30' E 014°10'1917.7
2015-Jul-25 19:28N 40°34' E 014°34'7 0.4
2015-Jul-25 03:17N 40°31' E 014°43'810.4
2015-Jul-25 02:33N 40°24' E 014°45'6510.9
2015-Jul-24 20:33N 39°19' E 014°58'1612.4
2015-Jul-24 19:16N 39°12' E 015°16'1114.5
2015-Jul-24 18:32N 39°02' E 015°21'1514.4
2015-Jul-24 17:32N 38°48' E 015°27'1414.7
2015-Jul-24 16:34N 38°35' E 015°34'1514.7
2015-Jul-24 15:33N 38°21' E 015°42'1111.4
2015-Jul-24 14:33N 38°11' E 015°36'1514.5
2015-Jul-24 13:33N 37°56' E 015°37'1413.5
2015-Jul-24 12:33N 37°49' E 015°51'57517.9
2015-Jul-23 04:26N 34°45' E 027°07'1818.0
2015-Jul-23 03:27N 34°44' E 027°28'1618.0
2015-Jul-23 02:33N 34°43' E 027°48'1818.3
2015-Jul-23 01:33N 34°42' E 028°10'1818.0
2015-Jul-23 00:33N 34°42' E 028°32'3717.8
2015-Jul-22 22:29N 34°40' E 029°16'1617.5
2015-Jul-22 21:33N 34°39' E 029°36'1817.6
2015-Jul-22 20:33N 34°38' E 029°58'1817.8
2015-Jul-22 19:33N 34°38' E 030°19'1817.7
2015-Jul-22 18:33N 34°37' E 030°41'1717.2
2015-Jul-22 17:33N 34°35' E 031°02'1717.3
2015-Jul-22 16:33N 34°34' E 031°22'1717.3
2015-Jul-22 15:34N 34°33' E 031°43'1717.2
2015-Jul-22 14:34N 34°33' E 032°04'1717.1
2015-Jul-22 13:34N 34°32' E 032°25'1818.2
2015-Jul-22 12:33N 34°31' E 032°47'1514.7
2015-Jul-22 11:33N 34°35' E 033°04'5 4.6
2015-Jul-22 10:33N 34°39' E 033°01'0 0.0
2015-Jul-22 09:33N 34°39' E 033°01'0 0.0
2015-Jul-22 08:33N 34°39' E 033°01'0 0.0
2015-Jul-22 07:33N 34°39' E 033°01'0 0.0
2015-Jul-22 06:33N 34°39' E 033°01'0 0.0
2015-Jul-22 05:33N 34°39' E 033°01'0 0.1
2015-Jul-22 04:33N 34°39' E 033°01'4 3.5
2015-Jul-22 03:34N 34°37' E 033°04'10 9.7
2015-Jul-22 02:34N 34°27' E 033°07'1514.8
2015-Jul-22 01:33N 34°13' E 033°11'1515.0
2015-Jul-22 00:34N 33°59' E 033°16'1514.5
2015-Jul-21 23:33N 33°44' E 033°20'1514.5
2015-Jul-21 22:33N 33°30' E 033°24'1414.4
2015-Jul-21 21:33N 33°16' E 033°28'7 7.2
2015-Jul-21 20:33N 33°10' E 033°24'1 0.8
2015-Jul-21 19:32N 33°09' E 033°23'1111.3
2015-Jul-21 18:33N 32°58' E 033°22'1414.1
2015-Jul-21 17:33N 32°47' E 033°32'1413.9
2015-Jul-21 16:33N 32°36' E 033°42'1413.6
2015-Jul-21 15:33N 32°23' E 033°36'1010.4
2015-Jul-21 14:33N 32°13' E 033°39'1414.3
2015-Jul-21 13:33N 32°06' E 033°54'1414.2
2015-Jul-21 12:33N 31°60' E 034°09'1813.8
2015-Jul-21 11:14N 31°53' E 034°29'  
Track history (hours):
 
Tides and Currents Weather Stations Pressure Air Temp Water Temp Dewpoint Dewpoint Depression Visibility Wind Speed Wind Dir Waves Ship Positions

Grande Europa

Last reported at 2015-Jul-30 21:33 UTC. Time now 2015-Aug-01 11:48 UTC.
Position N 39°19' W 009°52'.

Length 183 m; draft 8.2 m.

Type: Ship (hazmat cat D). MMSI: 247206000.

Date/timePositionNaut miles runAvg speedWind from/ knotsBaromVisibWave heightAir tempDewpointWater temp
2015-Jul-30 21:33N 39°19' W 009°52'1615.7
2015-Jul-30 20:33N 39°04' W 009°51'1616.0
2015-Jul-30 19:33N 38°48' W 009°51'1514.7
2015-Jul-30 18:33N 38°34' W 009°45'1615.9
2015-Jul-30 17:33N 38°27' W 009°27'1615.6
2015-Jul-30 16:33N 38°21' W 009°09'1313.2
2015-Jul-30 15:33N 38°30' W 008°56'3 2.8
2015-Jul-30 14:33N 38°31' W 008°53'0 0.0
2015-Jul-30 13:30N 38°31' W 008°53'0 0.0
2015-Jul-30 12:33N 38°31' W 008°53'0 0.0
2015-Jul-30 11:33N 38°31' W 008°53'0 0.0
2015-Jul-30 10:33N 38°31' W 008°53'0 0.0
2015-Jul-30 09:33N 38°31' W 008°53'0 0.0
2015-Jul-30 08:33N 38°31' W 008°53'0 0.0
2015-Jul-30 07:33N 38°31' W 008°53'0 0.0
2015-Jul-30 06:33N 38°31' W 008°53'1 1.4
2015-Jul-30 05:33N 38°31' W 008°54'1111.3
2015-Jul-30 04:34N 38°21' W 009°01'1817.8
2015-Jul-30 03:33N 38°03' W 009°05'1818.1
2015-Jul-30 02:34N 37°46' W 009°10'1817.6
2015-Jul-30 01:33N 37°28' W 009°14'1817.4
2015-Jul-30 00:33N 37°11' W 009°19'1717.1
2015-Jul-29 23:32N 36°54' W 009°19'1616.4
2015-Jul-29 22:33N 36°44' W 009°04'1717.2
2015-Jul-29 21:33N 36°38' W 008°43'2116.8
2015-Jul-29 20:20N 36°31' W 008°19'1716.2
2015-Jul-29 19:16N 36°26' W 007°59'4717.2
2015-Jul-29 16:33N 36°12' W 007°03'21316.4
2015-Jul-29 03:32N 36°21' W 002°40'1717.6
2015-Jul-29 02:33N 36°25' W 002°18'1917.5
2015-Jul-29 01:26N 36°35' W 001°58'1517.0
2015-Jul-29 00:33N 36°45' W 001°44'1716.8
2015-Jul-28 23:33N 36°56' W 001°28'1717.2
2015-Jul-28 22:33N 37°07' W 001°12'1717.3
2015-Jul-28 21:33N 37°19' W 000°56'1717.2
2015-Jul-28 20:33N 37°30' W 000°39'1717.1
2015-Jul-28 19:33N 37°44' W 000°26'1717.1
2015-Jul-28 18:33N 37°58' W 000°14'1716.7
2015-Jul-28 17:33N 38°12' W 000°02'1717.3
2015-Jul-28 16:33N 38°26' E 000°09'6115.2
2015-Jul-28 12:33N 39°24' W 000°15'3 3.4
2015-Jul-28 11:33N 39°26' W 000°18'0 0.0
2015-Jul-28 10:33N 39°26' W 000°18'0 0.0
2015-Jul-28 09:33N 39°26' W 000°18'0 0.0
2015-Jul-28 08:33N 39°26' W 000°18'0 0.0
2015-Jul-28 07:33N 39°26' W 000°18'0 0.0
2015-Jul-28 06:33N 39°26' W 000°18'0 0.0
2015-Jul-28 05:33N 39°26' W 000°18'5 4.6
2015-Jul-28 04:33N 39°27' W 000°12'3616.8
2015-Jul-28 02:25N 39°41' E 000°30'1516.9
2015-Jul-28 01:32N 39°47' E 000°48'1716.6
2015-Jul-28 00:30N 39°56' E 001°07'1617.0
2015-Jul-27 23:33N 40°05' E 001°24'1716.5
2015-Jul-27 22:33N 40°15' E 001°42'1716.7
2015-Jul-27 21:33N 40°24' E 002°00'1616.5
2015-Jul-27 20:33N 40°33' E 002°18'1716.3
2015-Jul-27 19:32N 40°42' E 002°36'1818.1
2015-Jul-27 18:33N 40°52' E 002°56'13118.7
2015-Jul-27 11:33N 42°04' E 005°22'5317.8
2015-Jul-27 08:34N 42°34' E 006°21'1817.7
2015-Jul-27 07:33N 42°44' E 006°41'1817.7
2015-Jul-27 06:32N 42°56' E 006°60'1717.8
2015-Jul-27 05:33N 43°07' E 007°18'7017.2
2015-Jul-27 01:27N 43°59' E 008°24'1618.1
2015-Jul-27 00:33N 44°14' E 008°31'4 3.9
2015-Jul-26 23:26N 44°19' E 008°30'0 0.0
2015-Jul-26 22:26N 44°19' E 008°30'0 0.0
2015-Jul-26 21:29N 44°19' E 008°30'0 0.0
2015-Jul-26 19:26N 44°19' E 008°30'0 0.0
2015-Jul-26 18:32N 44°19' E 008°30'1 1.3
2015-Jul-26 17:33N 44°18' E 008°32'1211.5
2015-Jul-26 16:33N 44°08' E 008°40'1717.5
2015-Jul-26 15:33N 43°53' E 008°52'27216.6
2015-Jul-25 23:07N 40°42' E 013°14'916.9
2015-Jul-25 22:34N 40°39' E 013°26'1716.7
2015-Jul-25 21:34N 40°35' E 013°47'1817.6
2015-Jul-25 20:33N 40°30' E 014°10'1917.7
2015-Jul-25 19:28N 40°34' E 014°34'7 0.4
2015-Jul-25 03:17N 40°31' E 014°43'810.4
2015-Jul-25 02:33N 40°24' E 014°45'6510.9
2015-Jul-24 20:33N 39°19' E 014°58'1612.4
2015-Jul-24 19:16N 39°12' E 015°16'1114.5
2015-Jul-24 18:32N 39°02' E 015°21'1514.4
2015-Jul-24 17:32N 38°48' E 015°27'1414.7
2015-Jul-24 16:34N 38°35' E 015°34'1514.7
2015-Jul-24 15:33N 38°21' E 015°42'1111.4
2015-Jul-24 14:33N 38°11' E 015°36'1514.5
2015-Jul-24 13:33N 37°56' E 015°37'1413.5
2015-Jul-24 12:33N 37°49' E 015°51'57517.9
2015-Jul-23 04:26N 34°45' E 027°07'1818.0
2015-Jul-23 03:27N 34°44' E 027°28'1618.0
2015-Jul-23 02:33N 34°43' E 027°48'1818.3
2015-Jul-23 01:33N 34°42' E 028°10'1818.0
2015-Jul-23 00:33N 34°42' E 028°32'3717.8
2015-Jul-22 22:29N 34°40' E 029°16'1617.5
2015-Jul-22 21:33N 34°39' E 029°36'1817.6
2015-Jul-22 20:33N 34°38' E 029°58'1817.8
2015-Jul-22 19:33N 34°38' E 030°19'1817.7
2015-Jul-22 18:33N 34°37' E 030°41'1717.2
2015-Jul-22 17:33N 34°35' E 031°02'1717.3
2015-Jul-22 16:33N 34°34' E 031°22'1717.3
2015-Jul-22 15:34N 34°33' E 031°43'1717.2
2015-Jul-22 14:34N 34°33' E 032°04'1717.1
2015-Jul-22 13:34N 34°32' E 032°25'1818.2
2015-Jul-22 12:33N 34°31' E 032°47'1514.7
2015-Jul-22 11:33N 34°35' E 033°04'5 4.6
2015-Jul-22 10:33N 34°39' E 033°01'0 0.0
2015-Jul-22 09:33N 34°39' E 033°01'0 0.0
2015-Jul-22 08:33N 34°39' E 033°01'0 0.0
2015-Jul-22 07:33N 34°39' E 033°01'0 0.0
2015-Jul-22 06:33N 34°39' E 033°01'0 0.0
2015-Jul-22 05:33N 34°39' E 033°01'0 0.1
2015-Jul-22 04:33N 34°39' E 033°01'4 3.5
2015-Jul-22 03:34N 34°37' E 033°04'10 9.7
2015-Jul-22 02:34N 34°27' E 033°07'1514.8
2015-Jul-22 01:33N 34°13' E 033°11'1515.0
2015-Jul-22 00:34N 33°59' E 033°16'1514.5
2015-Jul-21 23:33N 33°44' E 033°20'1514.5
2015-Jul-21 22:33N 33°30' E 033°24'1414.4
2015-Jul-21 21:33N 33°16' E 033°28'7 7.2
2015-Jul-21 20:33N 33°10' E 033°24'1 0.8
2015-Jul-21 19:32N 33°09' E 033°23'1111.3
2015-Jul-21 18:33N 32°58' E 033°22'1414.1
2015-Jul-21 17:33N 32°47' E 033°32'1413.9
2015-Jul-21 16:33N 32°36' E 033°42'1413.6
2015-Jul-21 15:33N 32°23' E 033°36'1010.4
2015-Jul-21 14:33N 32°13' E 033°39'1414.3
2015-Jul-21 13:33N 32°06' E 033°54'1414.2
2015-Jul-21 12:33N 31°60' E 034°09'1813.8
2015-Jul-21 11:14N 31°53' E 034°29'  

Dump ship's entire track history